createdAt,value
2022-11-01T00:00:01.393Z,12.86
2022-11-01T00:02:04.030Z,12.87
2022-11-01T00:04:06.937Z,12.86
2022-11-01T00:06:10.886Z,12.86
2022-11-01T00:08:13.493Z,12.88
2022-11-01T00:12:19.794Z,12.91
2022-11-01T00:14:22.501Z,12.91
2022-11-01T00:16:25.509Z,12.89
2022-11-01T00:18:29.637Z,12.95
2022-11-01T00:20:32.291Z,12.94
2022-11-01T00:22:36.252Z,12.95
2022-11-01T00:24:38.793Z,12.90
2022-11-01T00:26:41.871Z,12.88
2022-11-01T00:28:44.599Z,12.86
2022-11-01T00:30:47.175Z,12.85
2022-11-01T00:32:49.764Z,12.86
2022-11-01T00:34:52.336Z,12.89
2022-11-01T00:36:54.900Z,12.91
2022-11-01T00:38:58.849Z,12.92
2022-11-01T00:41:02.634Z,12.93
2022-11-01T00:43:05.316Z,12.92
2022-11-01T00:45:08.750Z,12.92
2022-11-01T00:47:11.331Z,12.96
2022-11-01T00:49:13.896Z,12.93
2022-11-01T00:51:16.539Z,12.90
2022-11-01T00:53:19.134Z,12.85
2022-11-01T00:55:23.040Z,12.84
2022-11-01T00:57:25.886Z,12.83
2022-11-01T00:59:28.469Z,12.83
2022-11-01T01:01:32.332Z,12.80
2022-11-01T01:03:35.285Z,12.78
2022-11-01T01:05:38.080Z,12.77
2022-11-01T01:07:40.766Z,12.75
2022-11-01T01:09:43.481Z,12.73
2022-11-01T01:11:47.368Z,12.73
2022-11-01T01:13:49.918Z,12.72
2022-11-01T01:15:52.641Z,12.72
2022-11-01T01:17:55.245Z,12.73
2022-11-01T01:19:57.799Z,12.69
2022-11-01T01:22:01.084Z,12.69
2022-11-01T01:24:03.685Z,12.69
2022-11-01T01:26:08.035Z,12.71
2022-11-01T01:28:11.978Z,12.67
2022-11-01T01:30:14.955Z,12.66
2022-11-01T01:32:19.265Z,12.63
2022-11-01T01:34:22.075Z,12.65
2022-11-01T01:36:24.601Z,12.61
2022-11-01T01:38:27.440Z,12.58
2022-11-01T01:40:29.981Z,12.56
2022-11-01T01:42:33.425Z,12.54
2022-11-01T01:45:21.399Z,12.50
2022-11-01T01:47:27.325Z,12.51
2022-11-01T01:49:29.912Z,12.50
2022-11-01T01:51:32.574Z,12.49
2022-11-01T01:53:38.476Z,12.48
2022-11-01T01:55:46.670Z,12.50
2022-11-01T01:57:50.480Z,12.50
2022-11-01T01:59:53.419Z,12.49
2022-11-01T02:01:56.134Z,12.51
2022-11-01T02:04:00.384Z,12.46
2022-11-01T02:06:09.039Z,12.43
2022-11-01T02:08:13.852Z,12.42
2022-11-01T02:10:17.552Z,12.45
2022-11-01T02:12:20.210Z,12.43
2022-11-01T02:14:25.360Z,12.43
2022-11-01T02:16:40.960Z,12.43
2022-11-01T02:18:47.973Z,12.45
2022-11-01T02:21:27.043Z,12.42
2022-11-01T02:23:58.206Z,12.44
2022-11-01T02:26:20.349Z,12.47
2022-11-01T02:28:41.059Z,12.46
2022-11-01T02:30:52.783Z,12.51
2022-11-01T02:33:06.028Z,12.54
2022-11-01T02:35:16.450Z,12.55
2022-11-01T02:37:27.180Z,12.57
2022-11-01T02:39:35.690Z,12.58
2022-11-01T02:41:43.995Z,12.61
2022-11-01T02:43:51.945Z,12.61
2022-11-01T02:45:54.672Z,12.63
2022-11-01T02:47:57.468Z,12.66
2022-11-01T02:50:05.034Z,12.67
2022-11-01T02:52:10.467Z,12.70
2022-11-01T02:54:21.568Z,12.72
2022-11-01T02:56:24.129Z,12.73
2022-11-01T02:58:31.939Z,12.77
2022-11-01T03:00:36.731Z,12.80
2022-11-01T03:02:43.866Z,12.80
2022-11-01T03:04:48.270Z,12.83
2022-11-01T03:06:57.686Z,12.83
2022-11-01T03:09:03.575Z,12.83
2022-11-01T03:11:09.605Z,12.83
2022-11-01T03:13:28.927Z,12.79
2022-11-01T03:15:39.880Z,12.81
2022-11-01T03:17:50.278Z,12.77
2022-11-01T03:19:57.530Z,12.75
2022-11-01T03:22:07.052Z,12.77
2022-11-01T03:24:20.008Z,12.75
2022-11-01T03:26:27.973Z,12.77
2022-11-01T03:28:36.521Z,12.77
2022-11-01T03:30:42.897Z,12.77
2022-11-01T03:32:50.373Z,12.78
2022-11-01T03:34:53.729Z,12.78
2022-11-01T03:37:00.653Z,12.81
2022-11-01T03:39:10.968Z,12.80
2022-11-01T03:41:18.315Z,12.99
2022-11-01T03:43:24.781Z,12.89
2022-11-01T03:45:29.269Z,12.87
2022-11-01T03:47:31.883Z,12.94
2022-11-01T03:49:34.469Z,12.95
2022-11-01T03:51:37.015Z,12.92
2022-11-01T03:53:39.744Z,12.91
2022-11-01T03:55:43.850Z,12.91
2022-11-01T03:57:46.810Z,12.92
2022-11-01T03:59:49.393Z,12.90
2022-11-01T04:01:52.796Z,12.91
2022-11-01T04:03:55.511Z,12.97
2022-11-01T04:05:58.054Z,12.89
2022-11-01T04:08:00.688Z,12.87
2022-11-01T04:10:04.453Z,12.85
2022-11-01T04:12:08.621Z,12.87
2022-11-01T04:14:29.139Z,12.88
2022-11-01T04:16:49.082Z,12.84
2022-11-01T04:19:08.522Z,12.85
2022-11-01T04:21:13.564Z,12.85
2022-11-01T04:23:17.105Z,12.87
2022-11-01T04:25:19.694Z,12.87
2022-11-01T04:27:23.602Z,12.90
2022-11-01T04:29:26.178Z,12.91
2022-11-01T04:31:31.155Z,12.94
2022-11-01T04:33:33.814Z,12.96
2022-11-01T04:35:37.524Z,12.95
2022-11-01T04:37:40.306Z,12.97
2022-11-01T04:39:42.857Z,12.97
2022-11-01T04:41:45.434Z,12.98
2022-11-01T04:43:50.472Z,12.98
2022-11-01T04:45:56.568Z,12.96
2022-11-01T04:48:03.562Z,12.97
2022-11-01T04:50:07.188Z,12.98
2022-11-01T04:52:09.744Z,12.97
2022-11-01T04:54:12.312Z,13.01
2022-11-01T04:56:15.116Z,13.00
2022-11-01T04:58:17.673Z,13.00
2022-11-01T05:00:22.912Z,13.02
2022-11-01T05:02:25.618Z,13.00
2022-11-01T05:04:28.175Z,13.01
2022-11-01T05:06:30.728Z,12.99
2022-11-01T05:08:33.476Z,13.02
2022-11-01T05:10:37.570Z,13.02
2022-11-01T05:12:40.121Z,13.02
2022-11-01T05:14:42.691Z,13.02
2022-11-01T05:16:46.558Z,13.01
2022-11-01T05:18:49.729Z,13.03
2022-11-01T05:20:52.318Z,13.05
2022-11-01T05:22:59.541Z,13.04
2022-11-01T05:25:02.460Z,13.05
2022-11-01T05:27:05.077Z,13.05
2022-11-01T05:29:09.013Z,13.06
2022-11-01T05:31:20.982Z,13.06
2022-11-01T05:33:24.862Z,13.08
2022-11-01T05:35:28.516Z,13.09
2022-11-01T05:37:31.227Z,13.13
2022-11-01T05:39:33.768Z,13.17
2022-11-01T05:41:38.707Z,13.16
2022-11-01T05:43:41.330Z,13.17
2022-11-01T05:45:43.916Z,13.19
2022-11-01T05:47:46.603Z,13.24
2022-11-01T05:49:50.510Z,13.24
2022-11-01T05:51:53.067Z,13.23
2022-11-01T05:53:55.640Z,13.26
2022-11-01T05:55:58.646Z,13.26
2022-11-01T05:58:01.252Z,13.25
2022-11-01T06:00:05.627Z,13.26
2022-11-01T06:02:08.322Z,13.27
2022-11-01T06:04:10.952Z,13.26
2022-11-01T06:06:15.281Z,13.23
2022-11-01T06:08:18.908Z,13.19
2022-11-01T06:10:21.480Z,13.19
2022-11-01T06:12:25.005Z,13.20
2022-11-01T06:14:27.796Z,13.26
2022-11-01T06:16:30.353Z,13.19
2022-11-01T06:18:33.547Z,13.18
2022-11-01T06:20:38.134Z,13.22
2022-11-01T06:22:42.071Z,13.19
2022-11-01T06:24:44.653Z,13.15
2022-11-01T06:26:47.211Z,13.17
2022-11-01T06:28:49.978Z,13.16
2022-11-01T06:30:52.668Z,13.23
2022-11-01T06:33:00.683Z,13.23
2022-11-01T06:35:03.518Z,13.23
2022-11-01T06:37:06.058Z,13.27
2022-11-01T06:39:10.921Z,13.28
2022-11-01T06:41:13.483Z,13.29
2022-11-01T06:43:16.210Z,13.29
2022-11-01T06:45:18.836Z,13.32
2022-11-01T06:47:21.407Z,13.41
2022-11-01T06:49:23.994Z,13.40
2022-11-01T06:51:27.361Z,13.43
2022-11-01T06:53:30.453Z,13.46
2022-11-01T06:55:34.333Z,13.47
2022-11-01T06:57:37.011Z,13.49
2022-11-01T06:59:39.564Z,13.50
2022-11-01T07:01:42.141Z,13.51
2022-11-01T07:03:46.969Z,13.54
2022-11-01T07:05:50.415Z,13.56
2022-11-01T07:07:53.043Z,13.61
2022-11-01T07:09:55.618Z,13.64
2022-11-01T07:11:59.527Z,13.62
2022-11-01T07:14:02.211Z,13.63
2022-11-01T07:16:05.326Z,13.62
2022-11-01T07:18:09.219Z,13.74
2022-11-01T07:20:12.015Z,13.77
2022-11-01T07:22:15.062Z,13.85
2022-11-01T07:24:17.710Z,13.82
2022-11-01T07:26:20.308Z,14.05
2022-11-01T07:28:24.673Z,14.09
2022-11-01T07:30:27.876Z,14.13
2022-11-01T07:32:30.534Z,14.17
2022-11-01T07:34:33.264Z,14.15
2022-11-01T07:36:35.863Z,14.13
2022-11-01T07:38:38.589Z,14.19
2022-11-01T07:40:41.590Z,14.15
2022-11-01T07:42:44.934Z,14.14
2022-11-01T07:44:48.817Z,14.14
2022-11-01T07:46:51.381Z,14.19
2022-11-01T07:48:54.013Z,14.17
2022-11-01T07:50:57.605Z,14.16
2022-11-01T07:53:01.185Z,14.17
2022-11-01T07:55:03.768Z,14.16
2022-11-01T07:57:06.700Z,14.17
2022-11-01T07:59:09.742Z,14.21
2022-11-01T08:01:13.713Z,14.23
2022-11-01T08:03:19.191Z,14.22
2022-11-01T08:05:21.787Z,14.26
2022-11-01T08:07:24.306Z,14.26
2022-11-01T08:09:26.881Z,14.26
2022-11-01T08:11:30.401Z,14.29
2022-11-01T08:13:32.979Z,14.33
2022-11-01T08:15:36.083Z,14.35
2022-11-01T08:17:40.005Z,14.35
2022-11-01T08:19:42.552Z,14.42
2022-11-01T08:21:45.549Z,14.39
2022-11-01T08:23:48.515Z,14.39
2022-11-01T08:25:51.243Z,14.40
2022-11-01T08:27:53.943Z,14.41
2022-11-01T08:29:56.591Z,14.42
2022-11-01T08:31:59.171Z,14.42
2022-11-01T08:34:03.096Z,14.44
2022-11-01T08:36:05.963Z,14.46
2022-11-01T08:38:09.581Z,14.47
2022-11-01T08:40:13.199Z,14.49
2022-11-01T08:42:15.770Z,14.52
2022-11-01T08:44:19.349Z,14.54
2022-11-01T08:46:22.105Z,14.55
2022-11-01T08:48:24.671Z,14.57
2022-11-01T08:50:28.951Z,14.57
2022-11-01T08:52:31.533Z,14.57
2022-11-01T08:54:34.814Z,14.58
2022-11-01T08:56:37.361Z,14.65
2022-11-01T08:58:39.913Z,14.67
2022-11-01T09:00:42.590Z,14.66
2022-11-01T09:02:45.385Z,14.68
2022-11-01T09:04:48.009Z,14.70
2022-11-01T09:06:52.062Z,14.74
2022-11-01T09:08:54.772Z,14.75
2022-11-01T09:10:58.799Z,14.82
2022-11-01T09:13:02.599Z,14.81
2022-11-01T09:15:07.111Z,14.83
2022-11-01T09:17:10.034Z,14.85
2022-11-01T09:19:12.651Z,14.98
2022-11-01T09:21:17.007Z,14.95
2022-11-01T09:23:20.883Z,14.95
2022-11-01T09:25:23.478Z,14.98
2022-11-01T09:27:26.165Z,14.96
2022-11-01T09:29:28.835Z,15.00
2022-11-01T09:31:31.557Z,15.03
2022-11-01T09:33:34.552Z,15.03
2022-11-01T09:35:37.367Z,15.06
2022-11-01T09:37:39.987Z,15.13
2022-11-01T09:39:43.917Z,15.12
2022-11-01T09:41:51.260Z,15.14
2022-11-01T09:43:54.837Z,15.20
2022-11-01T09:45:59.399Z,15.36
2022-11-01T09:48:04.790Z,15.44
2022-11-01T09:50:17.294Z,15.43
2022-11-01T09:52:22.296Z,15.43
2022-11-01T09:54:26.198Z,15.42
2022-11-01T09:56:35.261Z,15.44
2022-11-01T09:58:51.123Z,15.53
2022-11-01T10:01:01.528Z,15.59
2022-11-01T10:03:23.345Z,15.72
2022-11-01T10:05:40.090Z,15.74
2022-11-01T10:07:46.490Z,15.91
2022-11-01T10:09:57.071Z,15.85
2022-11-01T10:12:17.411Z,16.01
2022-11-01T10:14:35.359Z,16.04
2022-11-01T10:16:41.970Z,16.08
2022-11-01T10:18:51.739Z,16.07
2022-11-01T10:20:54.652Z,16.06
2022-11-01T10:22:58.836Z,16.34
2022-11-01T10:25:07.267Z,16.25
2022-11-01T10:27:19.318Z,16.28
2022-11-01T10:29:25.524Z,16.32
2022-11-01T10:31:29.696Z,16.47
2022-11-01T10:33:36.390Z,16.42
2022-11-01T10:35:44.400Z,16.54
2022-11-01T10:38:11.062Z,16.58
2022-11-01T10:40:21.183Z,16.61
2022-11-01T10:42:29.369Z,16.61
2022-11-01T10:44:35.498Z,16.54
2022-11-01T10:46:40.797Z,16.69
2022-11-01T10:48:47.928Z,16.61
2022-11-01T10:50:51.401Z,16.55
2022-11-01T10:52:57.171Z,16.51
2022-11-01T10:55:03.083Z,16.48
2022-11-01T10:57:11.965Z,16.55
2022-11-01T10:59:20.364Z,16.65
2022-11-01T11:01:26.932Z,16.67
2022-11-01T11:03:31.893Z,16.77
2022-11-01T11:05:34.919Z,16.94
2022-11-01T11:07:37.476Z,17.02
2022-11-01T11:09:40.090Z,16.92
2022-11-01T11:11:43.310Z,16.81
2022-11-01T11:13:48.782Z,16.79
2022-11-01T11:15:55.807Z,16.74
2022-11-01T11:18:03.071Z,16.79
2022-11-01T11:20:08.325Z,16.74
2022-11-01T11:22:12.438Z,16.67
2022-11-01T11:24:20.734Z,16.71
2022-11-01T11:26:23.408Z,16.83
2022-11-01T11:28:31.401Z,16.87
2022-11-01T11:30:36.204Z,16.98
2022-11-01T11:32:48.586Z,16.87
2022-11-01T11:34:57.352Z,17.02
2022-11-01T11:37:01.778Z,16.95
2022-11-01T11:39:05.069Z,17.14
2022-11-01T11:41:10.443Z,17.13
2022-11-01T11:43:23.885Z,16.99
2022-11-01T11:45:29.026Z,17.00
2022-11-01T11:47:37.491Z,17.00
2022-11-01T11:49:41.466Z,17.13
2022-11-01T11:51:47.411Z,17.17
2022-11-01T11:54:13.512Z,17.13
2022-11-01T11:56:22.058Z,17.05
2022-11-01T11:58:29.615Z,16.97
2022-11-01T12:00:35.742Z,17.06
2022-11-01T12:02:41.411Z,17.07
2022-11-01T12:04:52.732Z,16.96
2022-11-01T12:06:55.368Z,17.02
2022-11-01T12:08:59.547Z,16.98
2022-11-01T12:11:02.328Z,16.95
2022-11-01T12:13:21.336Z,16.97
2022-11-01T12:15:29.707Z,16.89
2022-11-01T12:17:34.986Z,17.04
2022-11-01T12:19:37.521Z,17.13
2022-11-01T12:21:44.363Z,17.02
2022-11-01T12:23:48.869Z,17.04
2022-11-01T12:25:52.159Z,17.02
2022-11-01T12:28:02.165Z,17.00
2022-11-01T12:30:10.317Z,17.02
2022-11-01T12:32:18.751Z,17.19
2022-11-01T12:34:24.525Z,17.10
2022-11-01T12:36:32.842Z,17.25
2022-11-01T12:38:42.243Z,17.37
2022-11-01T12:40:47.173Z,17.27
2022-11-01T12:42:54.318Z,17.19
2022-11-01T12:45:03.423Z,17.22
2022-11-01T12:47:11.661Z,17.36
2022-11-01T12:49:21.594Z,17.26
2022-11-01T12:51:29.087Z,17.35
2022-11-01T12:53:38.294Z,17.29
2022-11-01T12:55:43.168Z,17.32
2022-11-01T12:57:45.875Z,17.55
2022-11-01T12:59:49.458Z,17.55
2022-11-01T13:01:57.765Z,17.46
2022-11-01T13:04:12.021Z,17.50
2022-11-01T13:06:28.365Z,17.49
2022-11-01T13:08:41.680Z,17.41
2022-11-01T13:10:48.494Z,17.38
2022-11-01T13:13:02.328Z,17.31
2022-11-01T13:15:15.763Z,17.33
2022-11-01T13:17:26.757Z,17.34
2022-11-01T13:19:37.423Z,17.26
2022-11-01T13:21:48.569Z,17.38
2022-11-01T13:23:56.640Z,17.37
2022-11-01T13:26:04.952Z,17.35
2022-11-01T13:28:19.246Z,17.38
2022-11-01T13:30:21.941Z,17.42
2022-11-01T13:32:34.289Z,17.48
2022-11-01T13:34:47.544Z,17.53
2022-11-01T13:36:57.985Z,17.55
2022-11-01T13:39:07.348Z,17.52
2022-11-01T13:41:22.686Z,17.50
2022-11-01T13:43:29.740Z,17.53
2022-11-01T13:45:51.328Z,17.58
2022-11-01T13:48:04.806Z,17.48
2022-11-01T13:50:26.114Z,17.51
2022-11-01T13:52:31.250Z,17.51
2022-11-01T13:54:39.545Z,17.49
2022-11-01T13:56:51.132Z,17.73
2022-11-01T13:58:53.968Z,17.73
2022-11-01T14:00:56.770Z,17.91
2022-11-01T14:03:01.127Z,17.88
2022-11-01T14:05:07.082Z,18.11
2022-11-01T14:07:16.292Z,18.13
2022-11-01T14:09:29.402Z,18.17
2022-11-01T14:11:47.330Z,18.18
2022-11-01T14:13:49.935Z,18.19
2022-11-01T14:16:04.847Z,18.41
2022-11-01T14:18:09.926Z,18.57
2022-11-01T14:20:44.903Z,18.66
2022-11-01T14:22:47.849Z,18.69
2022-11-01T14:24:54.578Z,18.68
2022-11-01T14:27:24.350Z,18.70
2022-11-01T14:29:26.936Z,18.70
2022-11-01T14:31:33.832Z,18.65
2022-11-01T14:33:37.386Z,18.57
2022-11-01T14:35:43.685Z,18.55
2022-11-01T14:37:49.455Z,18.47
2022-11-01T14:39:59.297Z,18.46
2022-11-01T14:42:05.002Z,18.36
2022-11-01T14:44:15.925Z,18.29
2022-11-01T14:46:21.940Z,18.33
2022-11-01T14:48:31.942Z,18.56
2022-11-01T14:50:43.318Z,18.31
2022-11-01T14:52:50.682Z,18.23
2022-11-01T14:54:57.340Z,18.15
2022-11-01T14:57:00.906Z,18.12
2022-11-01T14:59:15.001Z,18.12
2022-11-01T15:01:20.696Z,18.15
2022-11-01T15:03:24.301Z,18.22
2022-11-01T15:05:27.395Z,18.13
2022-11-01T15:07:33.936Z,18.04
2022-11-01T15:09:36.562Z,18.06
2022-11-01T15:11:39.290Z,17.91
2022-11-01T15:13:44.438Z,17.89
2022-11-01T15:15:59.948Z,17.92
2022-11-01T15:18:06.588Z,17.89
2022-11-01T15:20:14.691Z,17.84
2022-11-01T15:22:19.322Z,17.77
2022-11-01T15:24:25.145Z,17.80
2022-11-01T15:26:31.129Z,17.69
2022-11-01T15:28:38.039Z,17.68
2022-11-01T15:30:42.761Z,17.66
2022-11-01T15:32:46.681Z,17.64
2022-11-01T15:34:53.380Z,17.56
2022-11-01T15:36:56.244Z,17.49
2022-11-01T15:39:00.229Z,17.42
2022-11-01T15:41:21.953Z,17.34
2022-11-01T15:43:27.878Z,17.28
2022-11-01T15:45:31.975Z,17.26
2022-11-01T15:47:36.409Z,17.21
2022-11-01T15:49:48.237Z,17.14
2022-11-01T15:51:53.242Z,17.05
2022-11-01T15:54:02.119Z,17.06
2022-11-01T15:56:09.769Z,16.99
2022-11-01T15:58:18.468Z,16.99
2022-11-01T16:00:23.413Z,16.94
2022-11-01T16:02:31.238Z,16.89
2022-11-01T16:04:42.189Z,16.87
2022-11-01T16:06:50.965Z,16.80
2022-11-01T16:08:57.965Z,16.74
2022-11-01T16:11:01.269Z,16.77
2022-11-01T16:13:06.033Z,16.70
2022-11-01T16:15:21.458Z,16.65
2022-11-01T16:17:31.542Z,16.57
2022-11-01T16:19:42.536Z,16.50
2022-11-01T16:21:48.766Z,16.43
2022-11-01T16:23:53.212Z,16.38
2022-11-01T16:26:02.630Z,16.32
2022-11-01T16:28:08.012Z,16.23
2022-11-01T16:30:42.844Z,16.15
2022-11-01T16:32:45.620Z,16.13
2022-11-01T16:34:49.719Z,16.08
2022-11-01T16:36:52.803Z,16.05
2022-11-01T16:38:55.885Z,16.00
2022-11-01T16:41:00.008Z,15.94
2022-11-01T16:43:02.550Z,15.92
2022-11-01T16:45:06.598Z,15.84
2022-11-01T16:47:11.082Z,15.78
2022-11-01T16:49:20.466Z,15.74
2022-11-01T16:51:28.277Z,15.67
2022-11-01T16:53:31.433Z,15.58
2022-11-01T16:55:37.348Z,15.53
2022-11-01T16:57:40.292Z,15.47
2022-11-01T16:59:43.001Z,15.42
2022-11-01T17:01:47.160Z,15.35
2022-11-01T17:03:50.732Z,15.32
2022-11-01T17:05:56.338Z,15.29
2022-11-01T17:08:01.346Z,15.26
2022-11-01T17:10:16.296Z,15.27
2022-11-01T17:12:18.836Z,15.31
2022-11-01T17:14:22.503Z,15.26
2022-11-01T17:16:27.207Z,15.19
2022-11-01T17:18:34.043Z,15.16
2022-11-01T17:20:36.680Z,15.13
2022-11-01T17:22:39.278Z,15.09
2022-11-01T17:24:43.220Z,15.08
2022-11-01T17:26:45.824Z,15.05
2022-11-01T17:28:51.217Z,14.97
2022-11-01T17:30:55.237Z,14.99
2022-11-01T17:32:57.770Z,15.00
2022-11-01T17:35:00.345Z,15.01
2022-11-01T17:37:03.511Z,15.11
2022-11-01T17:39:06.127Z,15.09
2022-11-01T17:41:15.471Z,15.12
2022-11-01T17:43:19.825Z,15.08
2022-11-01T17:45:23.220Z,15.10
2022-11-01T17:47:26.035Z,15.21
2022-11-01T17:49:28.632Z,15.18
2022-11-01T17:51:31.741Z,15.15
2022-11-01T17:53:34.715Z,15.22
2022-11-01T17:55:38.324Z,15.22
2022-11-01T17:57:43.401Z,15.19
2022-11-01T17:59:46.009Z,15.21
2022-11-01T18:01:51.472Z,15.15
2022-11-01T18:03:54.356Z,15.19
2022-11-01T18:05:58.577Z,15.15
2022-11-01T18:08:03.585Z,15.12
2022-11-01T18:10:15.461Z,15.12
2022-11-01T18:12:24.566Z,15.08
2022-11-01T18:14:42.698Z,15.07
2022-11-01T18:16:49.426Z,15.08
2022-11-01T18:19:03.619Z,15.03
2022-11-01T18:21:15.228Z,14.98
2022-11-01T18:23:20.095Z,14.93
2022-11-01T18:25:30.824Z,14.90
2022-11-01T18:27:36.452Z,14.87
2022-11-01T18:29:42.956Z,14.82
2022-11-01T18:31:59.007Z,14.74
2022-11-01T18:34:08.474Z,14.67
2022-11-01T18:36:18.954Z,14.64
2022-11-01T18:38:29.966Z,14.61
2022-11-01T18:40:45.225Z,14.54
2022-11-01T18:42:48.065Z,14.47
2022-11-01T18:44:52.641Z,14.38
2022-11-01T18:47:00.992Z,14.33
2022-11-01T18:49:08.510Z,14.25
2022-11-01T18:51:14.880Z,14.18
2022-11-01T18:53:19.500Z,14.12
2022-11-01T18:55:22.170Z,14.06
2022-11-01T18:57:25.176Z,14.03
2022-11-01T18:59:30.434Z,14.00
2022-11-01T19:01:34.782Z,13.94
2022-11-01T19:03:37.493Z,13.85
2022-11-01T19:05:40.483Z,13.80
2022-11-01T19:08:09.588Z,13.73
2022-11-01T19:10:16.834Z,13.67
2022-11-01T19:12:26.909Z,13.66
2022-11-01T19:14:32.203Z,13.54
2022-11-01T19:16:38.064Z,13.50
2022-11-01T19:18:43.544Z,13.46
2022-11-01T19:20:50.832Z,13.41
2022-11-01T19:22:55.918Z,13.41
2022-11-01T19:24:58.547Z,13.36
2022-11-01T19:27:02.439Z,13.27
2022-11-01T19:29:16.861Z,13.26
2022-11-01T19:31:26.170Z,13.21
2022-11-01T19:33:34.303Z,13.17
2022-11-01T19:35:38.328Z,13.19
2022-11-01T19:37:43.001Z,13.17
2022-11-01T19:39:45.989Z,13.11
2022-11-01T19:41:48.601Z,13.09
2022-11-01T19:43:51.835Z,13.06
2022-11-01T19:45:56.697Z,13.08
2022-11-01T19:48:02.243Z,13.07
2022-11-01T19:50:17.532Z,13.11
2022-11-01T19:52:27.162Z,13.04
2022-11-01T19:54:36.077Z,13.03
2022-11-01T19:56:39.041Z,12.99
2022-11-01T19:58:45.304Z,13.01
2022-11-01T20:00:48.190Z,12.85
2022-11-01T20:02:53.137Z,12.80
2022-11-01T20:05:01.066Z,12.75
2022-11-01T20:07:12.305Z,12.85
2022-11-01T20:09:20.047Z,12.86
2022-11-01T20:11:22.863Z,12.77
2022-11-01T20:13:25.670Z,12.76
2022-11-01T20:15:28.972Z,12.79
2022-11-01T20:17:32.209Z,12.74
2022-11-01T20:19:34.874Z,12.74
2022-11-01T20:21:37.636Z,12.77
2022-11-01T20:23:41.578Z,12.80
2022-11-01T20:25:44.117Z,12.81
2022-11-01T20:27:46.795Z,12.90
2022-11-01T20:29:49.466Z,12.93
2022-11-01T20:31:52.049Z,12.92
2022-11-01T20:33:54.794Z,12.89
2022-11-01T20:35:57.685Z,12.81
2022-11-01T20:38:00.254Z,12.84
2022-11-01T20:40:04.631Z,12.74
2022-11-01T20:42:07.989Z,12.70
2022-11-01T20:44:10.530Z,12.68
2022-11-01T20:46:13.609Z,12.69
2022-11-01T20:48:18.204Z,12.68
2022-11-01T20:50:21.025Z,12.65
2022-11-01T20:52:39.225Z,12.64
2022-11-01T20:54:42.783Z,12.64
2022-11-01T20:56:46.779Z,12.63
2022-11-01T20:58:49.528Z,12.61
2022-11-01T21:00:52.421Z,12.60
2022-11-01T21:02:57.090Z,12.58
2022-11-01T21:05:02.947Z,12.59
2022-11-01T21:07:12.280Z,12.56
2022-11-01T21:09:28.064Z,12.59
2022-11-01T21:11:43.950Z,12.60
2022-11-01T21:13:50.827Z,12.57
2022-11-01T21:15:55.363Z,12.54
2022-11-01T21:18:20.302Z,12.50
2022-11-01T21:20:26.914Z,12.53
2022-11-01T21:22:30.362Z,12.44
2022-11-01T21:24:36.091Z,12.42
2022-11-01T21:26:41.944Z,12.39
2022-11-01T21:28:47.556Z,12.38
2022-11-01T21:30:51.507Z,12.37
2022-11-01T21:32:54.101Z,12.37
2022-11-01T21:34:57.612Z,12.42
2022-11-01T21:37:00.842Z,12.36
2022-11-01T21:39:11.085Z,12.35
2022-11-01T21:41:24.670Z,12.30
2022-11-01T21:43:31.840Z,12.28
2022-11-01T21:45:34.504Z,12.38
2022-11-01T21:47:44.635Z,12.34
2022-11-01T21:49:48.811Z,12.30
2022-11-01T21:51:51.468Z,12.26
2022-11-01T21:53:54.834Z,12.34
2022-11-01T21:55:58.514Z,12.29
2022-11-01T21:58:01.090Z,12.33
2022-11-01T22:00:03.900Z,12.27
2022-11-01T22:02:08.806Z,12.23
2022-11-01T22:04:12.938Z,12.30
2022-11-01T22:06:15.527Z,12.24
2022-11-01T22:08:18.119Z,12.19
2022-11-01T22:10:20.676Z,12.14
2022-11-01T22:12:23.260Z,12.10
2022-11-01T22:14:25.884Z,12.09
2022-11-01T22:16:28.758Z,12.06
2022-11-01T22:18:31.361Z,12.07
2022-11-01T22:20:35.500Z,12.04
2022-11-01T22:22:38.321Z,12.04
2022-11-01T22:24:40.945Z,12.03
2022-11-01T22:26:43.550Z,11.99
2022-11-01T22:28:46.123Z,11.98
2022-11-01T22:30:48.731Z,12.00
2022-11-01T22:32:51.298Z,11.94
2022-11-01T22:34:53.865Z,11.84
2022-11-01T22:36:57.877Z,11.86
2022-11-01T22:39:02.877Z,11.79
2022-11-01T22:41:12.551Z,11.66
2022-11-01T22:43:18.329Z,11.58
2022-11-01T22:45:20.865Z,11.55
2022-11-01T22:47:26.906Z,11.49
2022-11-01T22:49:32.401Z,11.47
2022-11-01T22:51:40.359Z,11.42
2022-11-01T22:53:44.320Z,11.42
2022-11-01T22:55:48.801Z,11.43
2022-11-01T22:57:54.532Z,11.41
2022-11-01T23:00:01.062Z,11.40
2022-11-01T23:02:24.841Z,11.39
2022-11-01T23:04:27.497Z,11.35
2022-11-01T23:06:32.593Z,11.31
2022-11-01T23:08:38.686Z,11.23
2022-11-01T23:10:47.262Z,11.14
2022-11-01T23:13:09.534Z,11.09
2022-11-01T23:15:25.901Z,11.00
2022-11-01T23:17:34.131Z,10.97
2022-11-01T23:21:44.644Z,10.88
2022-11-01T23:23:48.298Z,11.03
2022-11-01T23:25:52.907Z,10.99
2022-11-01T23:27:55.567Z,10.87
2022-11-01T23:30:00.927Z,10.74
2022-11-01T23:32:03.910Z,10.74
2022-11-01T23:34:07.173Z,10.70
2022-11-01T23:36:15.995Z,10.67
2022-11-01T23:38:22.013Z,10.59
2022-11-01T23:40:31.591Z,10.61
2022-11-01T23:42:36.096Z,10.67
2022-11-01T23:44:41.040Z,10.73
2022-11-01T23:46:43.644Z,10.80
2022-11-01T23:48:46.187Z,10.85
2022-11-01T23:50:51.095Z,10.94
2022-11-01T23:52:56.694Z,11.01
2022-11-01T23:54:59.370Z,11.01
2022-11-01T23:57:02.119Z,11.08
2022-11-01T23:59:06.257Z,11.13
